Time;durP1;ratioP1;P1;durP2;ratioP2;P2;SDS_P1;SDS_P2;PMS_P1;PMS_P2;Temp;Humidity;BMP_temperature;BMP_pressure;BME280_temperature;BME280_humidity;BME280_pressure;Samples;Min_cycle;Max_cycle;Signal;HPM_P1;HPM_P2
2023/08/28 00:01:32;;;;;;;9.85;8.75;;;23.90;86.60;;;22.92;74.75;99204.88;10280564;28;97456;-88
2023/08/28 00:06:36;;;;;;;10.38;9.38;;;23.80;87.20;;;22.85;75.02;99196.16;10262123;28;96670;-88
2023/08/28 00:11:39;;;;;;;9.30;8.40;;;23.80;87.40;;;22.77;75.03;99191.31;10263802;28;99661;-88
2023/08/28 00:16:43;;;;;;;8.52;7.18;;;23.70;87.60;;;22.81;76.56;99178.84;10261861;28;96827;-89
2023/08/28 00:21:47;;;;;;;8.48;6.95;;;23.70;88.70;;;22.94;76.89;99181.03;10280934;28;97384;-89
2023/08/28 00:26:51;;;;;;;7.45;5.90;;;23.70;88.90;;;23.05;78.34;99169.09;10275727;28;97711;-87
2023/08/28 00:31:54;;;;;;;8.35;6.60;;;23.90;89.70;;;23.16;78.62;99173.41;10265076;28;96996;-88
2023/08/28 00:36:58;;;;;;;8.40;7.55;;;24.00;89.80;;;23.24;77.92;99182.84;10258335;28;97041;-88
2023/08/28 00:42:01;;;;;;;8.73;7.82;;;24.10;89.70;;;23.22;77.74;99161.47;10275028;28;97716;-88
2023/08/28 00:47:10;;;;;;;10.52;7.32;;;24.10;89.60;;;23.13;77.31;99152.25;10261421;28;96828;-88
2023/08/28 00:52:16;;;;;;;8.57;6.90;;;24.10;89.80;;;23.08;78.11;99171.22;10256341;28;97611;-88
2023/08/28 00:57:20;;;;;;;9.32;6.95;;;24.00;90.10;;;22.96;79.00;99176.13;10253241;28;96970;-89
2023/08/28 01:02:23;;;;;;;8.88;7.13;;;23.90;90.40;;;22.87;79.31;99175.09;10262491;28;96670;-88
2023/08/28 01:07:42;;;;;;;8.85;7.95;;;23.70;90.60;;;22.82;80.21;99183.19;10258275;28;97313;-88
2023/08/28 01:12:59;;;;;;;8.00;7.20;;;23.70;90.80;;;22.76;80.06;99168.84;10276531;28;98032;-88
2023/08/28 01:18:05;;;;;;;8.52;7.70;;;23.60;90.90;;;22.60;80.78;99162.59;10250247;28;96745;-88
2023/08/28 01:23:31;;;;;;;7.60;6.28;;;23.50;91.10;;;22.54;81.94;99171.81;10250522;28;96855;-89
2023/08/28 01:28:35;;;;;;;7.40;5.65;;;23.40;91.50;;;22.50;82.60;99167.25;10260387;28;98610;-89
2023/08/28 01:33:42;;;;;;;6.65;5.97;;;23.40;91.80;;;22.45;83.41;99165.34;10275090;28;96586;-89
2023/08/28 01:38:58;;;;;;;7.10;6.45;;;23.40;92.00;;;22.43;83.93;99167.47;10237300;28;98572;-89
2023/08/28 01:44:06;;;;;;;7.45;6.35;;;23.30;92.30;;;22.34;84.23;99161.81;10277194;28;96675;-89
2023/08/28 01:49:09;;;;;;;7.45;5.72;;;23.20;92.50;;;22.33;84.76;99171.00;10254850;28;96596;-89
2023/08/28 01:54:13;;;;;;;9.90;5.40;;;23.20;92.70;;;22.32;84.53;99165.88;10255950;28;96745;-90
2023/08/28 01:59:17;;;;;;;7.32;5.43;;;23.20;92.80;;;22.26;85.21;99161.53;10261212;28;97707;-89
2023/08/28 02:04:21;;;;;;;8.38;5.18;;;23.20;93.00;;;22.21;86.08;99158.81;10245359;28;98204;-89
2023/08/28 02:09:24;;;;;;;7.70;5.53;;;23.10;93.30;;;22.19;86.16;99159.09;10238949;28;96821;-90
2023/08/28 02:14:28;;;;;;;6.72;6.03;;;23.10;93.40;;;22.21;86.07;99166.94;10242848;28;96945;-89
2023/08/28 02:19:31;;;;;;;6.85;5.10;;;23.10;93.60;;;22.14;86.36;99164.50;10254628;28;96890;-89
2023/08/28 02:24:35;;;;;;;6.68;6.05;;;23.10;93.60;;;22.15;86.89;99191.28;10265004;28;97556;-89
2023/08/28 02:29:39;;;;;;;7.55;5.90;;;23.10;93.70;;;22.13;86.74;99179.94;10271375;28;97326;-89
2023/08/28 02:34:43;;;;;;;8.20;6.90;;;23.10;93.80;;;22.04;87.00;99176.09;10259865;28;96713;-88
2023/08/28 02:39:47;;;;;;;8.52;6.25;;;23.00;94.00;;;21.98;87.26;99187.97;10270160;28;96580;-89
2023/08/28 02:44:51;;;;;;;7.15;5.95;;;23.00;94.20;;;21.89;87.33;99176.03;10267790;28;96816;-89
2023/08/28 02:49:54;;;;;;;7.30;6.10;;;22.90;94.40;;;21.86;87.44;99177.41;10257048;28;96775;-89
2023/08/28 02:54:58;;;;;;;6.05;5.45;;;22.80;94.50;;;21.81;87.75;99181.97;10262574;28;96484;-89
2023/08/28 03:00:02;;;;;;;7.25;5.60;;;22.80;94.80;;;21.74;88.46;99173.31;10265386;28;97069;-89
2023/08/28 03:05:06;;;;;;;8.20;6.78;;;22.70;94.90;;;21.59;89.02;99172.19;10258429;28;96607;-89
2023/08/28 03:10:10;;;;;;;9.10;7.00;;;22.50;95.20;;;21.41;90.32;99179.91;10263500;28;97351;-88
2023/08/28 03:15:14;;;;;;;7.78;6.53;;;22.30;95.70;;;21.29;90.91;99182.84;10291054;28;97477;-88
2023/08/28 03:20:20;;;;;;;6.72;5.97;;;22.20;96.10;;;21.20;91.55;99184.41;10253604;28;98519;-89
2023/08/28 03:25:24;;;;;;;7.50;6.70;;;22.10;96.40;;;21.13;91.72;99195.44;10254366;28;96527;-89
2023/08/28 03:30:28;;;;;;;6.90;6.20;;;22.10;96.60;;;21.11;92.60;99200.25;10258477;28;96596;-89
2023/08/28 03:35:31;;;;;;;6.90;5.82;;;22.00;97.00;;;21.06;93.24;99200.25;10271283;28;96903;-89
2023/08/28 03:40:37;;;;;;;6.18;5.57;;;21.90;97.30;;;21.05;93.47;99204.00;10265020;28;97023;-89
2023/08/28 03:45:41;;;;;;;7.40;5.80;;;21.90;97.50;;;20.99;93.34;99186.97;10273625;28;96651;-88
2023/08/28 03:50:46;;;;;;;6.57;5.88;;;22.00;97.50;;;20.97;93.38;99207.22;10271991;28;98386;-88
2023/08/28 03:55:49;;;;;;;6.65;5.47;;;21.90;97.60;;;20.88;93.61;99214.19;10265026;28;96897;-89
2023/08/28 04:00:55;;;;;;;6.80;5.60;;;21.80;97.80;;;20.80;94.08;99210.06;10261417;28;98646;-88
2023/08/28 04:05:59;;;;;;;7.70;5.38;;;21.70;98.00;;;20.74;95.24;99219.19;10270687;28;98274;-87
2023/08/28 04:11:03;;;;;;;8.05;6.30;;;21.60;98.30;;;20.72;95.52;99205.13;10257637;28;96832;-87
2023/08/28 04:16:07;;;;;;;7.43;5.65;;;21.60;98.50;;;20.75;95.47;99212.72;10272813;28;97168;-86
2023/08/28 04:21:10;;;;;;;7.28;6.05;;;21.70;98.70;;;20.75;95.39;99207.31;10258502;28;96615;-86
2023/08/28 04:26:14;;;;;;;9.88;5.78;;;21.70;98.70;;;20.79;95.52;99216.53;10277928;28;97337;-87
2023/08/28 04:31:19;;;;;;;7.40;6.30;;;21.70;98.70;;;20.82;95.25;99208.72;10286817;28;97173;-87
2023/08/28 04:36:22;;;;;;;6.57;5.65;;;21.80;98.80;;;20.85;95.11;99207.41;10255356;28;98656;-87
2023/08/28 04:41:26;;;;;;;8.25;6.00;;;21.90;98.80;;;20.85;95.98;99208.19;10271878;28;98913;-88
2023/08/28 04:46:29;;;;;;;8.27;6.00;;;21.80;98.80;;;20.87;95.63;99191.75;10260306;28;96660;-88
2023/08/28 04:51:33;;;;;;;6.95;6.25;;;21.90;98.90;;;20.89;95.77;99184.22;10251934;28;97419;-88
2023/08/28 04:56:36;;;;;;;10.45;6.68;;;21.90;99.00;;;21.00;95.69;99180.50;10258604;28;97391;-87
2023/08/28 05:01:40;;;;;;;6.68;5.90;;;22.00;99.00;;;21.09;95.53;99183.50;10257875;28;97598;-87
2023/08/28 05:06:44;;;;;;;6.53;5.93;;;22.10;99.00;;;21.20;95.35;99187.09;10272688;28;96635;-88
2023/08/28 05:11:48;;;;;;;7.10;6.40;;;22.10;99.00;;;21.30;95.08;99173.69;10274287;28;96961;-89
2023/08/28 05:16:51;;;;;;;7.57;6.80;;;22.20;99.10;;;21.44;95.14;99177.50;10272755;28;96709;-91
2023/08/28 05:21:55;;;;;;;8.27;6.93;;;22.40;99.10;;;21.56;94.85;99166.47;10252319;28;98702;-87
2023/08/28 05:26:59;;;;;;;9.45;7.18;;;22.50;99.10;;;21.71;94.44;99168.41;10275449;28;97802;-89
2023/08/28 05:32:03;;;;;;;8.55;7.30;;;22.60;99.10;;;21.87;93.89;99172.78;10271991;28;96989;-90
2023/08/28 05:37:07;;;;;;;10.02;6.78;;;22.80;99.00;;;22.00;93.40;99166.88;10273301;28;96705;-89
2023/08/28 05:42:10;;;;;;;8.65;6.90;;;23.00;99.00;;;22.21;93.36;99166.94;10267868;28;96685;-89
2023/08/28 05:47:14;;;;;;;7.25;6.20;;;23.10;98.80;;;22.33;92.62;99157.47;10243488;28;98680;-89
2023/08/28 05:52:18;;;;;;;7.82;6.43;;;23.30;98.50;;;22.48;92.18;99151.25;10250748;28;98088;-89
2023/08/28 05:57:23;;;;;;;8.50;6.43;;;23.40;98.50;;;22.64;91.67;99146.63;10254229;28;97989;-88
2023/08/28 06:02:27;;;;;;;8.60;6.63;;;23.60;98.30;;;22.79;90.85;99146.63;10250971;28;97054;-89
2023/08/28 06:07:31;;;;;;;10.27;7.60;;;23.80;98.00;;;22.87;90.06;99132.56;10251158;28;96581;-87
2023/08/28 06:12:34;;;;;;;12.70;8.38;;;23.90;97.90;;;22.96;89.82;99141.72;10263986;28;96693;-89
2023/08/28 06:17:38;;;;;;;10.18;8.23;;;24.00;98.00;;;23.02;89.89;99147.94;10268657;28;98513;-88
2023/08/28 06:22:44;;;;;;;9.55;7.60;;;24.00;98.00;;;23.11;90.54;99140.91;10256046;28;97657;-89
2023/08/28 06:27:48;;;;;;;10.52;7.70;;;24.10;98.00;;;23.29;90.53;99133.25;10286593;28;96638;-89
2023/08/28 06:32:51;;;;;;;11.38;7.72;;;24.30;97.80;;;23.50;90.39;99126.63;10252195;28;98356;-89
2023/08/28 06:37:55;;;;;;;9.30;7.35;;;24.50;97.70;;;23.65;87.71;99126.59;10256606;28;97415;-89
2023/08/28 06:42:59;;;;;;;9.15;7.03;;;24.70;97.10;;;23.71;86.42;99130.09;10270590;28;98042;-89
2023/08/28 06:48:03;;;;;;;9.55;6.60;;;24.70;96.70;;;23.78;86.15;99125.16;10255086;28;97569;-88
2023/08/28 06:53:06;;;;;;;7.38;6.47;;;24.80;96.80;;;23.94;85.93;99123.19;10262655;28;98397;-90
2023/08/28 06:58:10;;;;;;;8.50;6.97;;;24.90;96.70;;;24.12;85.21;99111.66;10248635;28;97116;-90
2023/08/28 07:03:14;;;;;;;7.57;6.80;;;25.10;96.40;;;24.34;83.87;99113.09;10257649;28;98104;-90
2023/08/28 07:08:21;;;;;;;7.90;7.10;;;25.40;96.20;;;24.55;83.04;99107.22;10252036;28;96936;-89
2023/08/28 07:13:27;;;;;;;;;;;25.50;95.90;;;24.70;81.13;99103.53;10282157;28;97025;-90
2023/08/28 07:18:31;;;;;;;8.10;6.47;;;25.70;95.70;;;24.89;80.51;99094.66;10252763;28;98809;-90
2023/08/28 07:23:37;;;;;;;8.50;6.55;;;25.90;95.20;;;24.91;78.76;99076.16;10256914;28;98562;-89
2023/08/28 07:28:40;;;;;;;10.80;6.80;;;26.10;94.60;;;25.08;78.46;99087.41;10264399;28;96535;-90
2023/08/28 07:33:44;;;;;;;8.93;7.22;;;26.20;94.40;;;25.23;78.37;99068.19;10270000;28;98430;-90
2023/08/28 07:38:47;;;;;;;12.07;6.57;;;26.30;94.30;;;25.44;76.80;99071.47;10284830;28;96602;-90
2023/08/28 07:43:51;;;;;;;8.23;7.38;;;26.60;94.00;;;25.56;75.07;99068.31;10264146;28;98018;-89
2023/08/28 07:48:55;;;;;;;9.43;7.45;;;26.70;93.30;;;25.74;74.25;99078.41;10246214;28;98440;-90
2023/08/28 07:53:58;;;;;;;7.75;6.93;;;26.80;92.90;;;25.91;73.18;99071.59;10246666;28;96931;-88
2023/08/28 07:59:04;;;;;;;9.93;7.20;;;26.90;92.80;;;26.11;72.74;99082.19;10256589;22;98067;-90
2023/08/28 08:04:08;;;;;;;9.02;7.32;;;27.00;92.60;;;26.24;71.31;99081.41;10268280;28;97602;-88
2023/08/28 08:09:11;;;;;;;11.82;7.00;;;27.30;92.20;;;26.32;71.26;99072.56;10295530;28;97095;-88
2023/08/28 08:14:15;;;;;;;10.98;7.15;;;27.30;92.10;;;26.49;71.77;99074.75;10277569;28;97545;-88
2023/08/28 08:19:19;;;;;;;9.55;6.75;;;27.50;92.00;;;26.71;70.87;99063.19;10262003;28;97224;-95
2023/08/28 08:24:22;;;;;;;8.48;7.15;;;27.70;91.60;;;26.84;69.03;99054.19;10267452;28;97535;-91
2023/08/28 08:29:26;;;;;;;9.18;7.50;;;27.90;91.20;;;26.98;68.72;99040.56;10256299;28;98453;-90
2023/08/28 08:34:32;;;;;;;13.20;7.90;;;28.00;90.90;;;27.13;68.73;99034.81;10269739;28;98114;-91
2023/08/28 08:39:35;;;;;;;7.90;6.70;;;28.20;90.80;;;27.34;68.66;99020.72;10270870;28;97347;-91
2023/08/28 08:44:39;;;;;;;9.63;7.00;;;28.40;90.70;;;27.58;68.31;99013.09;10275425;28;98069;-94
2023/08/28 08:49:49;;;;;;;7.97;6.55;;;28.70;90.60;;;27.84;66.01;99002.41;10275657;28;96812;-94
2023/08/28 08:55:06;;;;;;;10.18;7.55;;;28.90;90.00;;;28.00;65.26;99008.28;10277749;28;97993;-94
2023/08/28 09:00:18;;;;;;;11.55;6.80;;;29.10;89.20;;;28.12;65.25;99004.97;10254854;28;96937;-95
2023/08/28 09:05:23;;;;;;;8.27;7.13;;;29.20;88.90;;;28.28;64.86;99022.59;10251912;28;98313;-94
2023/08/28 09:10:27;;;;;;;9.48;7.60;;;29.30;89.00;;;28.43;63.47;99014.03;10264200;28;96679;-93
2023/08/28 09:15:30;;;;;;;12.25;7.32;;;29.50;88.70;;;28.66;61.82;98994.81;10263539;28;97642;-95
2023/08/28 09:20:34;;;;;;;12.38;7.57;;;29.70;86.80;;;28.94;62.84;99003.63;10270012;28;96769;-96
2023/08/28 09:25:41;;;;;;;8.90;6.95;;;29.90;86.90;;;29.13;60.48;99004.13;10261907;28;97433;-95
2023/08/28 09:30:45;;;;;;;9.60;6.75;;;30.10;85.40;;;29.21;59.88;99011.56;10268272;28;98278;-95
2023/08/28 09:35:49;;;;;;;8.65;6.97;;;30.20;84.50;;;29.33;59.95;98999.97;10267861;28;97867;-96
2023/08/28 09:40:53;;;;;;;9.75;7.18;;;30.30;84.40;;;29.40;58.36;98981.16;10283594;28;97273;-96
2023/08/28 09:46:00;;;;;;;7.13;6.35;;;30.30;83.20;;;29.40;57.32;98975.69;10266305;28;97268;-96
2023/08/28 09:51:07;;;;;;;9.90;6.68;;;30.40;82.70;;;29.40;58.24;98975.69;10243845;28;98993;-96
2023/08/28 09:56:18;;;;;;;7.90;6.60;;;30.30;83.10;;;29.40;58.30;98963.94;10292230;28;97266;-95
2023/08/28 10:01:22;;;;;;;10.77;7.15;;;30.30;82.70;;;29.50;57.06;98952.63;10282003;28;97607;-96
2023/08/28 10:06:27;;;;;;;7.63;6.68;;;30.40;81.70;;;29.65;56.81;98954.91;10265694;28;96861;-96
2023/08/28 10:11:39;;;;;;;10.13;6.22;;;30.60;81.80;;;29.91;56.71;98943.09;10249579;28;98471;-95
2023/08/28 10:17:12;;;;;;;9.32;6.38;;;30.90;81.40;;;30.23;55.00;98928.03;10248294;28;98270;-94
2023/08/28 10:22:16;;;;;;;13.05;7.07;;;31.20;80.20;;;30.47;54.36;98921.97;10286664;28;96637;-95
2023/08/28 10:27:20;;;;;;;11.82;7.38;;;31.50;79.60;;;30.70;52.94;98911.53;10300758;28;96653;-95
2023/08/28 10:32:25;;;;;;;8.10;6.50;;;31.60;77.60;;;30.90;51.79;98899.81;10306930;28;97286;-95
2023/08/28 10:37:30;;;;;;;9.98;6.05;;;31.90;76.70;;;31.10;51.43;98904.47;10298352;28;97361;-94
2023/08/28 10:42:36;;;;;;;7.03;5.70;;;32.10;76.40;;;31.34;49.89;98894.78;10293191;28;98662;-92
2023/08/28 10:47:47;;;;;;;6.65;5.93;;;32.40;75.00;;;31.64;49.68;98899.00;10282913;28;96718;-95
2023/08/28 10:52:58;;;;;;;7.25;6.40;;;32.60;74.60;;;31.92;48.37;98892.91;10290031;28;98368;-95
2023/08/28 10:58:05;;;;;;;8.73;6.32;;;32.80;73.00;;;32.04;46.64;98889.38;10276512;28;97344;-95
2023/08/28 11:03:15;;;;;;;6.65;5.90;;;33.00;70.90;;;32.15;45.55;98887.81;10275394;28;97062;-93
2023/08/28 11:08:20;;;;;;;7.45;5.70;;;33.10;69.90;;;32.22;45.71;98886.06;10272343;28;99060;-95
2023/08/28 11:13:24;;;;;;;7.00;5.70;;;33.20;69.70;;;32.26;44.94;98877.94;10272764;28;98560;-94
2023/08/28 11:18:30;;;;;;;6.53;5.65;;;33.40;68.80;;;32.48;44.60;98873.94;10272118;28;98046;-95
2023/08/28 11:23:42;;;;;;;8.75;5.53;;;33.50;68.50;;;32.74;43.87;98871.59;10291012;28;97310;-94
2023/08/28 11:28:49;;;;;;;6.53;5.25;;;33.70;67.90;;;33.09;43.99;98865.56;10303964;28;97700;-93
2023/08/28 11:33:54;;;;;;;7.30;4.93;;;34.00;67.80;;;33.37;42.71;98856.53;10288517;28;97278;-93
2023/08/28 11:38:57;;;;;;;7.70;5.30;;;34.30;66.50;;;33.46;41.12;98851.66;10286215;28;97995;-94
2023/08/28 11:44:10;;;;;;;9.50;5.40;;;34.40;64.80;;;33.53;41.56;98843.63;10278684;28;96673;-95
2023/08/28 11:49:13;;;;;;;7.32;4.47;;;34.50;64.90;;;33.81;40.19;98835.25;10270901;28;96714;-93
2023/08/28 11:54:17;;;;;;;9.55;4.75;;;34.80;63.10;;;33.93;38.94;98839.91;10279945;28;98234;-94
2023/08/28 11:59:21;;;;;;;6.82;4.63;;;35.00;62.30;;;34.27;38.59;98833.66;10292829;28;97625;-95
2023/08/28 12:04:25;;;;;;;5.05;3.78;;;35.20;62.20;;;34.55;37.59;98830.00;10266566;28;97422;-94
2023/08/28 12:09:29;;;;;;;7.97;4.80;;;35.40;60.40;;;34.56;37.02;98817.78;10271445;28;98350;-95
2023/08/28 12:14:33;;;;;;;6.82;4.63;;;35.50;60.10;;;34.52;36.89;98805.88;10293503;28;98260;-93
2023/08/28 12:19:37;;;;;;;7.55;4.53;;;35.50;59.70;;;34.62;37.67;98813.59;10280871;28;97075;-93
2023/08/28 12:24:45;;;;;;;7.35;4.65;;;35.50;59.60;;;34.81;37.06;98794.28;10291977;28;97016;-93
2023/08/28 12:29:48;;;;;;;9.57;4.40;;;35.70;59.20;;;35.04;36.67;98785.28;10289725;28;97527;-92
2023/08/28 12:34:53;;;;;;;9.57;4.53;;;35.90;59.50;;;35.20;35.78;98772.16;10240454;28;97604;-91
2023/08/28 12:39:56;;;;;;;8.48;4.18;;;36.20;58.60;;;35.31;36.43;98756.59;10300067;28;96879;-92
2023/08/28 12:45:00;;;;;;;5.68;4.15;;;36.40;58.80;;;35.56;36.33;98759.03;10291150;28;97142;-92
2023/08/28 12:50:05;;;;;;;7.03;4.20;;;36.50;58.00;;;35.74;35.15;98749.06;10277964;28;97728;-92
2023/08/28 12:55:08;;;;;;;5.05;4.15;;;36.70;57.50;;;35.84;34.20;98740.13;10288162;28;96700;-94
2023/08/28 13:00:13;;;;;;;8.20;4.53;;;36.80;56.50;;;35.81;34.53;98742.88;10233468;28;98219;-91
2023/08/28 13:05:17;;;;;;;6.97;4.30;;;36.70;56.40;;;35.73;33.88;98732.84;10247084;28;97880;-93
2023/08/28 13:10:20;;;;;;;5.80;3.88;;;36.60;55.30;;;35.55;33.29;98732.56;10261220;28;96739;-96
2023/08/28 13:15:27;;;;;;;6.35;4.07;;;36.50;55.20;;;35.38;34.30;98722.78;10251485;28;98725;-93
2023/08/28 13:20:30;;;;;;;9.75;4.07;;;36.30;55.70;;;35.28;33.40;98707.66;10251688;28;96819;-96
2023/08/28 13:25:34;;;;;;;8.45;5.05;;;36.20;55.20;;;35.34;33.72;98713.66;10234497;28;96647;-94
2023/08/28 13:30:37;;;;;;;7.53;4.10;;;36.30;55.10;;;35.38;33.62;98698.72;10255053;28;96596;-96
2023/08/28 13:35:41;;;;;;;9.50;4.43;;;36.40;54.80;;;35.41;33.58;98683.41;10234808;28;96758;-96
2023/08/28 13:40:45;;;;;;;7.80;4.15;;;36.40;54.70;;;35.35;33.02;98682.13;10254527;28;96671;-96
2023/08/28 13:45:50;;;;;;;6.72;4.20;;;36.40;54.30;;;35.26;33.41;98682.34;10235856;28;96947;-94
2023/08/28 13:50:54;;;;;;;6.18;4.35;;;36.30;54.00;;;35.18;33.31;98664.06;10234248;28;98307;-87
2023/08/28 13:55:58;;;;;;;5.72;3.92;;;36.20;53.90;;;35.17;32.26;98665.25;10248176;28;97347;-90
2023/08/28 14:01:05;;;;;;;7.45;3.88;;;36.10;53.20;;;35.10;32.71;98662.38;10232183;28;97353;-89
2023/08/28 14:06:09;;;;;;;7.97;4.25;;;36.00;53.20;;;35.10;31.91;98659.63;10250744;28;98600;-88
2023/08/28 14:11:14;;;;;;;6.35;3.85;;;35.90;52.80;;;35.03;32.21;98660.28;10250665;28;99647;-90
2023/08/28 14:16:18;;;;;;;6.25;3.60;;;35.90;52.90;;;35.12;32.16;98652.53;10246479;28;97231;-88
2023/08/28 14:21:22;;;;;;;8.07;3.63;;;36.00;52.60;;;35.27;30.50;98645.31;10251256;28;96654;-89
2023/08/28 14:26:26;;;;;;;7.55;4.00;;;36.20;51.00;;;35.57;29.39;98641.84;10248423;28;96624;-89
2023/08/28 14:31:30;;;;;;;6.32;3.33;;;36.80;49.70;;;36.04;28.44;98637.75;10232312;28;97699;-89
2023/08/28 14:36:33;;;;;;;8.82;3.58;;;37.50;48.60;;;36.60;28.91;98634.91;10251054;28;96838;-91
2023/08/28 14:41:37;;;;;;;7.55;3.38;;;38.20;48.50;;;37.06;27.60;98634.56;10249186;28;98601;-89
2023/08/28 14:46:40;;;;;;;6.65;3.20;;;38.90;47.40;;;37.52;27.01;98627.81;10243656;28;96789;-92
2023/08/28 14:51:44;;;;;;;7.30;4.32;;;39.20;46.70;;;37.89;26.37;98628.47;10239494;28;98543;-94
2023/08/28 14:56:48;;;;;;;8.05;2.95;;;39.60;46.20;;;38.21;26.41;98625.06;10238299;28;98658;-93
2023/08/28 15:01:51;;;;;;;6.40;2.97;;;39.90;45.90;;;38.32;25.80;98620.34;10233480;28;98123;-93
2023/08/28 15:06:55;;;;;;;8.82;3.53;;;40.00;45.60;;;38.49;26.43;98619.59;10228912;28;96911;-93
2023/08/28 15:12:02;;;;;;;5.95;3.17;;;40.20;46.20;;;38.59;25.49;98617.25;10229296;28;96752;-92
2023/08/28 15:17:05;;;;;;;4.47;2.80;;;40.20;45.00;;;38.51;24.82;98619.22;10246225;28;98021;-93
2023/08/28 15:22:09;;;;;;;5.47;2.83;;;40.10;44.40;;;38.38;25.37;98598.56;10244670;28;98380;-92
2023/08/28 15:27:14;;;;;;;6.45;3.03;;;40.00;44.80;;;38.24;25.44;98593.75;10249395;28;98120;-91
2023/08/28 15:32:19;;;;;;;10.40;3.17;;;39.80;44.80;;;38.16;26.28;98587.38;10235545;28;98132;-92
2023/08/28 15:37:22;;;;;;;11.02;3.55;;;39.60;45.30;;;37.98;26.09;98583.75;10248922;28;97522;-92
2023/08/28 15:42:26;;;;;;;10.95;3.30;;;39.40;45.40;;;37.86;26.41;98590.44;10256117;28;97225;-92
2023/08/28 15:47:30;;;;;;;5.05;2.80;;;39.20;45.90;;;37.87;26.87;98585.69;10244357;28;97270;-93
2023/08/28 15:52:34;;;;;;;7.18;2.70;;;39.20;46.30;;;37.83;27.26;98563.50;10234569;28;98482;-92
2023/08/28 15:57:37;;;;;;;6.43;3.20;;;39.20;46.60;;;37.78;27.74;98564.63;10253748;28;98698;-93
2023/08/28 16:02:41;;;;;;;9.32;3.47;;;39.20;47.40;;;37.63;28.69;98571.28;10263089;28;97371;-93
2023/08/28 16:07:44;;;;;;;7.00;3.20;;;39.00;49.40;;;37.42;30.54;98574.72;10268135;28;98352;-92
2023/08/28 16:12:48;;;;;;;7.03;3.10;;;38.80;50.20;;;37.09;31.86;98586.75;10259663;28;96862;-93
2023/08/28 16:17:51;;;;;;;6.32;3.72;;;38.20;51.30;;;36.63;33.39;98589.88;10277501;28;96791;-92
2023/08/28 16:22:55;;;;;;;6.63;3.22;;;37.60;53.50;;;36.12;35.70;98579.44;10300266;28;96396;-93
2023/08/28 16:27:58;;;;;;;6.30;2.97;;;37.00;54.90;;;35.52;35.35;98584.94;10274566;28;97909;-92
2023/08/28 16:33:03;;;;;;;8.00;3.10;;;36.50;54.90;;;34.99;36.05;98573.06;10302939;28;98475;-90
2023/08/28 16:38:06;;;;;;;8.00;3.42;;;36.00;55.60;;;34.67;37.62;98567.78;10302561;28;96474;-90
2023/08/28 16:43:10;;;;;;;12.77;3.95;;;35.60;56.30;;;34.27;39.09;98569.00;10308203;28;96462;-93
2023/08/28 16:48:14;;;;;;;9.35;4.32;;;35.20;58.00;;;33.78;41.41;98569.56;10293927;28;97986;-92
2023/08/28 16:53:17;;;;;;;9.85;4.30;;;34.60;60.10;;;33.31;42.58;98564.16;10260016;28;97016;-92
2023/08/28 16:58:21;;;;;;;8.80;3.80;;;34.10;61.50;;;32.86;43.67;98553.63;10284777;28;98713;-92
2023/08/28 17:03:26;;;;;;;7.85;3.60;;;33.50;62.30;;;32.42;44.19;98551.75;10265498;28;98234;-93
2023/08/28 17:08:30;;;;;;;7.97;3.30;;;33.20;62.60;;;32.08;44.62;98561.38;10265914;28;97399;-91
2023/08/28 17:13:34;;;;;;;9.73;3.53;;;32.80;63.10;;;31.68;45.49;98564.13;10293753;28;97233;-91
2023/08/28 17:18:42;;;;;;;11.95;3.70;;;32.40;64.10;;;31.29;46.54;98568.41;10282164;28;98427;-92
2023/08/28 17:23:46;;;;;;;7.47;4.10;;;32.00;64.50;;;30.88;46.58;98572.94;10284231;28;98866;-91
2023/08/28 17:28:49;;;;;;;7.80;3.70;;;31.60;64.80;;;30.49;46.33;98563.41;10269883;28;98565;-91
2023/08/28 17:33:53;;;;;;;9.20;3.40;;;31.30;64.30;;;30.15;46.16;98561.81;10279895;28;96629;-91
2023/08/28 17:39:16;;;;;;;9.38;3.53;;;31.00;64.30;;;29.86;46.74;98566.22;10273648;28;98073;-92
2023/08/28 17:44:20;;;;;;;8.50;3.55;;;30.70;64.80;;;29.52;48.04;98556.34;10256502;28;97037;-90
2023/08/28 17:49:24;;;;;;;4.93;3.30;;;30.40;65.70;;;29.26;48.69;98553.72;10287377;28;97121;-91
2023/08/28 17:54:27;;;;;;;11.10;4.55;;;30.10;65.90;;;28.97;48.65;98560.00;10291105;28;96679;-90
2023/08/28 17:59:31;;;;;;;6.43;3.15;;;29.80;66.40;;;28.70;50.37;98547.53;10272496;28;98448;-91
2023/08/28 18:04:34;;;;;;;10.93;4.20;;;29.60;67.40;;;28.47;50.25;98545.03;10255615;28;98550;-91
2023/08/28 18:09:40;;;;;;;9.00;3.47;;;29.30;67.60;;;28.22;51.15;98535.75;10257239;28;97520;-90
2023/08/28 18:14:43;;;;;;;13.27;3.50;;;29.00;68.20;;;28.00;52.39;98525.03;10259105;28;97593;-90
2023/08/28 18:19:47;;;;;;;10.68;4.40;;;28.80;68.60;;;27.80;53.37;98525.69;10265297;28;97477;-90
2023/08/28 18:24:51;;;;;;;12.50;4.82;;;28.50;69.70;;;27.59;54.72;98526.31;10267899;28;98386;-89
2023/08/28 18:29:54;;;;;;;7.28;3.60;;;28.40;70.40;;;27.42;55.50;98521.63;10284435;28;98352;-89
2023/08/28 18:34:58;;;;;;;12.18;3.63;;;28.20;71.30;;;27.28;56.22;98533.78;10288988;28;98411;-90
2023/08/28 18:40:05;;;;;;;9.43;4.28;;;28.00;72.00;;;27.14;57.22;98523.03;10290844;28;98376;-89
2023/08/28 18:45:09;;;;;;;9.25;3.50;;;27.90;72.50;;;27.03;57.83;98518.97;10264655;28;98060;-90
2023/08/28 18:50:13;;;;;;;8.88;4.50;;;27.80;72.70;;;26.95;57.68;98523.28;10271783;28;97968;-90
2023/08/28 18:55:17;;;;;;;10.95;3.80;;;27.70;73.20;;;26.89;58.12;98535.44;10287379;28;98362;-90
2023/08/28 19:00:35;;;;;;;9.83;3.93;;;27.70;73.30;;;26.79;58.11;98538.44;10270001;28;97859;-90
2023/08/28 19:05:39;;;;;;;7.30;3.75;;;27.60;73.70;;;26.74;57.76;98544.81;10274066;28;96632;-90
2023/08/28 19:10:42;;;;;;;7.22;4.15;;;27.50;73.50;;;26.64;58.03;98545.91;10258592;28;96800;-90
2023/08/28 19:15:48;;;;;;;7.80;3.75;;;27.50;73.40;;;26.59;57.74;98537.09;10269430;28;97274;-89
2023/08/28 19:20:52;;;;;;;8.30;4.15;;;27.40;73.20;;;26.48;58.07;98543.91;10268113;28;99126;-91
2023/08/28 19:26:04;;;;;;;7.05;3.72;;;27.30;73.60;;;26.38;58.96;98547.66;10276586;28;97367;-91
2023/08/28 19:31:08;;;;;;;8.95;3.42;;;27.20;74.00;;;26.26;59.37;98542.78;10269950;28;98219;-91
2023/08/28 19:36:12;;;;;;;9.18;3.97;;;27.00;74.70;;;26.18;60.14;98548.19;10289596;28;97099;-91
2023/08/28 19:41:15;;;;;;;7.68;3.60;;;26.90;75.00;;;26.12;60.48;98545.59;10272963;28;96823;-91
2023/08/28 19:46:19;;;;;;;8.85;3.95;;;26.90;76.00;;;26.06;61.02;98532.41;10268521;28;98399;-91
2023/08/28 19:51:26;;;;;;;8.60;4.00;;;26.80;75.80;;;26.06;61.17;98540.59;10258719;28;98628;-91
2023/08/28 19:56:31;;;;;;;11.60;4.20;;;26.80;76.00;;;26.00;61.97;98550.00;10287322;28;98554;-91
2023/08/28 20:01:34;;;;;;;13.77;3.70;;;26.80;76.50;;;25.94;61.89;98538.41;10270330;28;97914;-92
2023/08/28 20:06:38;;;;;;;7.15;3.97;;;26.70;76.60;;;25.88;62.54;98548.63;10290881;28;97383;-91
2023/08/28 20:11:41;;;;;;;8.32;3.80;;;26.70;77.00;;;25.86;62.67;98571.81;10271603;28;97307;-92
2023/08/28 20:16:45;;;;;;;7.47;3.95;;;26.60;77.20;;;25.82;62.98;98579.78;10282547;28;98392;-92
2023/08/28 20:21:49;;;;;;;7.90;4.50;;;26.60;77.60;;;25.78;63.65;98584.22;10270659;28;98645;-90
2023/08/28 20:26:53;;;;;;;5.95;3.67;;;26.50;77.80;;;25.75;63.68;98565.81;10269070;28;97958;-89
2023/08/28 20:31:58;;;;;;;6.40;3.85;;;26.50;77.90;;;25.76;63.16;98567.41;10265151;28;98153;-90
2023/08/28 20:37:03;;;;;;;7.20;4.30;;;26.60;78.20;;;25.75;63.77;98579.41;10289031;28;97977;-90
2023/08/28 20:42:07;;;;;;;9.98;4.38;;;26.50;78.30;;;25.73;63.59;98576.19;10264957;28;98695;-88
2023/08/28 20:47:11;;;;;;;6.20;4.10;;;26.50;78.40;;;25.70;64.34;98579.47;10257493;28;98320;-91
2023/08/28 20:52:15;;;;;;;12.20;4.57;;;26.50;78.70;;;25.71;63.16;98586.53;10285142;28;98119;-96
2023/08/28 20:57:20;;;;;;;6.75;3.67;;;26.50;78.40;;;25.78;62.69;98589.66;10270736;28;98410;-94
2023/08/28 21:02:23;;;;;;;6.63;3.25;;;26.60;77.40;;;26.14;58.20;98603.25;10272040;28;96658;-93
2023/08/28 21:07:28;;;;;;;10.63;3.80;;;26.80;74.60;;;26.47;57.02;98615.84;10259035;28;96885;-95